Time;durP1;ratioP1;P1;durP2;ratioP2;P2;SDS_P1;SDS_P2;PMS_P1;PMS_P2;Temp;Humidity;BMP_temperature;BMP_pressure;BME280_temperature;BME280_humidity;BME280_pressure;Samples;Min_cycle;Max_cycle;Signal;HPM_P1;HPM_P2
2023/10/31 00:01:24;;;;;;;10.27;6.80;;;11.00;99.90;;;;;;5065001;28;20159;-83
2023/10/31 00:03:49;;;;;;;11.35;7.18;;;11.00;99.90;;;;;;5069833;28;20068;-84
2023/10/31 00:06:15;;;;;;;10.07;6.47;;;11.00;99.90;;;;;;5076384;28;20043;-84
2023/10/31 00:08:41;;;;;;;10.63;6.57;;;11.00;99.90;;;;;;5066955;28;20143;-84
2023/10/31 00:11:07;;;;;;;8.52;6.72;;;11.00;99.90;;;;;;5085727;28;20039;-86
2023/10/31 00:13:33;;;;;;;9.73;6.75;;;11.00;99.90;;;;;;5065019;28;20414;-85
2023/10/31 00:15:59;;;;;;;11.10;8.18;;;11.00;99.90;;;;;;5081023;28;20044;-85
2023/10/31 00:18:25;;;;;;;19.67;9.80;;;11.00;99.90;;;;;;5062050;28;20540;-84
2023/10/31 00:20:50;;;;;;;15.70;8.38;;;10.90;99.90;;;;;;5082334;28;20051;-85
2023/10/31 00:23:16;;;;;;;14.85;7.20;;;11.00;99.90;;;;;;5078165;28;20131;-84
2023/10/31 00:25:42;;;;;;;18.92;7.53;;;11.00;99.90;;;;;;5067570;28;20036;-84
2023/10/31 00:28:08;;;;;;;10.05;6.00;;;11.00;99.90;;;;;;5085250;28;20397;-85
2023/10/31 00:30:44;;;;;;;14.25;6.38;;;11.00;99.90;;;;;;5066212;28;20108;-85
2023/10/31 00:33:45;;;;;;;7.97;4.80;;;11.00;99.90;;;;;;5064170;28;20585;-84
2023/10/31 00:36:10;;;;;;;;;;;11.00;99.90;;;;;;5083909;28;20067;-85
2023/10/31 00:38:36;;;;;;;9.00;5.13;;;11.00;99.90;;;;;;5065934;28;20021;-85
2023/10/31 00:41:02;;;;;;;6.55;4.82;;;11.00;99.90;;;;;;5067717;28;20691;-83
2023/10/31 00:43:28;;;;;;;6.60;5.13;;;11.00;99.90;;;;;;5062400;28;20135;-82
2023/10/31 00:45:54;;;;;;;9.07;6.45;;;11.00;99.90;;;;;;5066216;28;20043;-83
2023/10/31 00:48:20;;;;;;;9.15;5.38;;;11.00;99.90;;;;;;5061691;28;20040;-83
2023/10/31 00:50:46;;;;;;;7.90;5.55;;;10.90;99.90;;;;;;5063027;28;20074;-83
2023/10/31 00:53:13;;;;;;;7.65;5.07;;;11.00;99.90;;;;;;5083241;28;20504;-82
2023/10/31 00:55:39;;;;;;;5.55;3.75;;;10.90;99.90;;;;;;5069157;28;20055;-85
2023/10/31 00:58:05;;;;;;;11.55;4.40;;;10.80;99.90;;;;;;5082805;28;20040;-85
2023/10/31 01:00:31;;;;;;;6.25;3.92;;;10.80;99.90;;;;;;5079676;28;20311;-85
2023/10/31 01:02:57;;;;;;;12.60;4.15;;;10.80;99.90;;;;;;5061450;28;20570;-85
2023/10/31 01:05:23;;;;;;;7.95;3.60;;;10.80;99.90;;;;;;5058921;28;20047;-84
2023/10/31 01:07:49;;;;;;;3.70;1.80;;;10.80;99.90;;;;;;5059288;28;20044;-85
2023/10/31 01:10:15;;;;;;;5.32;1.83;;;10.70;99.90;;;;;;5067471;28;20051;-85
2023/10/31 01:12:41;;;;;;;3.97;1.92;;;10.70;99.90;;;;;;5063730;28;20063;-84
2023/10/31 01:15:07;;;;;;;6.95;2.42;;;10.70;99.90;;;;;;5078596;28;20078;-85
2023/10/31 01:17:32;;;;;;;3.88;1.70;;;10.70;99.90;;;;;;5068553;28;20054;-84
2023/10/31 01:19:58;;;;;;;5.63;2.20;;;10.60;99.90;;;;;;5064963;28;20263;-84
2023/10/31 01:22:24;;;;;;;8.10;1.90;;;10.60;99.90;;;;;;5065412;28;20325;-85
2023/10/31 01:24:50;;;;;;;8.40;1.23;;;10.60;99.90;;;;;;5065781;28;20028;-84
2023/10/31 01:27:18;;;;;;;7.60;1.92;;;10.50;99.90;;;;;;5067144;28;20048;-85
2023/10/31 01:29:44;;;;;;;8.30;1.55;;;10.50;99.90;;;;;;5095652;28;20093;-85
2023/10/31 01:32:14;;;;;;;2.45;1.05;;;10.50;99.90;;;;;;5080910;28;20044;-84
2023/10/31 01:34:39;;;;;;;6.70;1.70;;;10.50;99.90;;;;;;5082360;28;20104;-84
2023/10/31 01:37:05;;;;;;;6.22;1.50;;;10.40;99.90;;;;;;5077208;28;20040;-85
2023/10/31 01:39:31;;;;;;;8.13;1.50;;;10.40;99.90;;;;;;5089746;28;20044;-85
2023/10/31 01:41:57;;;;;;;4.53;1.30;;;10.40;99.90;;;;;;5062052;28;20044;-86
2023/10/31 01:44:22;;;;;;;4.97;1.40;;;10.30;99.90;;;;;;5081587;28;20043;-87
2023/10/31 01:46:48;;;;;;;5.90;1.45;;;10.30;99.90;;;;;;5062893;28;20043;-87
2023/10/31 01:49:14;;;;;;;7.15;1.40;;;10.30;99.90;;;;;;5066017;28;20506;-86
2023/10/31 01:51:45;;;;;;;13.35;1.98;;;10.30;99.90;;;;;;5067360;28;20401;-86
2023/10/31 01:54:12;;;;;;;8.52;1.30;;;10.20;99.90;;;;;;5080378;28;20570;-86
2023/10/31 01:56:38;;;;;;;8.13;2.08;;;10.30;99.90;;;;;;5064180;28;20118;-86
2023/10/31 01:59:05;;;;;;;9.63;2.35;;;10.20;99.90;;;;;;5081587;28;20040;-86
2023/10/31 02:01:32;;;;;;;5.47;1.90;;;10.20;99.90;;;;;;5062176;28;20044;-85
2023/10/31 02:03:58;;;;;;;9.50;3.13;;;10.20;99.90;;;;;;5066228;28;20081;-85
2023/10/31 02:06:24;;;;;;;8.30;2.60;;;10.20;99.90;;;;;;5076819;28;20386;-85
2023/10/31 02:08:50;;;;;;;9.80;2.75;;;10.20;99.90;;;;;;5067914;28;20033;-85
2023/10/31 02:11:16;;;;;;;8.35;2.78;;;10.20;99.90;;;;;;5073957;28;20526;-85
2023/10/31 02:13:42;;;;;;;9.30;2.67;;;10.20;99.90;;;;;;5072845;28;20154;-86
2023/10/31 02:16:08;;;;;;;10.10;2.38;;;10.20;99.90;;;;;;5069032;28;20036;-85
2023/10/31 02:18:36;;;;;;;7.55;2.13;;;10.20;99.90;;;;;;5060909;28;20048;-86
2023/10/31 02:21:02;;;;;;;11.90;3.03;;;10.20;99.90;;;;;;5055212;28;20130;-85
2023/10/31 02:23:31;;;;;;;7.63;2.25;;;10.20;99.90;;;;;;5077301;28;20052;-85
2023/10/31 02:25:57;;;;;;;15.60;2.45;;;10.10;99.90;;;;;;5076217;28;20050;-86
2023/10/31 02:28:27;;;;;;;10.52;2.47;;;10.20;99.90;;;;;;5081226;28;20052;-86
2023/10/31 02:30:54;;;;;;;14.30;3.15;;;10.20;99.90;;;;;;5086599;28;20036;-86
2023/10/31 02:33:20;;;;;;;15.82;3.55;;;10.10;99.90;;;;;;5078374;28;20051;-86
2023/10/31 02:35:46;;;;;;;13.88;3.22;;;10.10;99.90;;;;;;5069421;28;20044;-86
2023/10/31 02:38:12;;;;;;;10.32;3.28;;;10.20;99.90;;;;;;5078282;28;20046;-86
2023/10/31 02:40:38;;;;;;;9.40;2.97;;;10.20;99.90;;;;;;5084071;28;20044;-87
2023/10/31 02:43:04;;;;;;;7.60;3.30;;;10.20;99.90;;;;;;5072033;28;20040;-86
2023/10/31 02:45:30;;;;;;;7.40;2.90;;;10.10;99.90;;;;;;5070805;28;20036;-86
2023/10/31 02:47:55;;;;;;;18.88;5.55;;;10.20;99.90;;;;;;5065834;28;20117;-86
2023/10/31 02:50:21;;;;;;;12.85;4.22;;;10.20;99.90;;;;;;5068100;28;20044;-85
2023/10/31 02:52:47;;;;;;;13.70;4.78;;;10.20;99.90;;;;;;5079857;28;20049;-86
2023/10/31 02:55:13;;;;;;;13.57;5.00;;;10.20;99.90;;;;;;5067354;28;20696;-85
2023/10/31 02:57:39;;;;;;;23.75;6.85;;;10.20;99.90;;;;;;5067627;28;20942;-84
2023/10/31 03:00:05;;;;;;;11.50;5.05;;;10.20;99.90;;;;;;5084696;28;20032;-85
2023/10/31 03:02:31;;;;;;;7.05;4.20;;;10.20;99.90;;;;;;5076121;28;20325;-84
2023/10/31 03:04:57;;;;;;;10.35;4.63;;;10.20;99.90;;;;;;5066694;28;20040;-85
2023/10/31 03:07:23;;;;;;;11.52;4.93;;;10.20;99.90;;;;;;5056385;28;20044;-84
2023/10/31 03:09:49;;;;;;;11.90;6.03;;;10.20;99.90;;;;;;5089396;28;20043;-83
2023/10/31 03:12:14;;;;;;;14.55;6.10;;;10.20;99.90;;;;;;5102888;28;20043;-84
2023/10/31 03:14:41;;;;;;;14.20;6.75;;;10.20;99.90;;;;;;5071920;28;20051;-84
2023/10/31 03:17:07;;;;;;;15.98;6.25;;;10.20;99.90;;;;;;5067106;28;20037;-84
2023/10/31 03:19:33;;;;;;;24.50;7.65;;;10.20;99.90;;;;;;5077051;28;20067;-84
2023/10/31 03:22:02;;;;;;;15.23;6.28;;;10.20;99.90;;;;;;5068776;28;20052;-84
2023/10/31 03:24:28;;;;;;;19.55;7.65;;;10.20;99.90;;;;;;5071472;28;20047;-84
2023/10/31 03:26:54;;;;;;;14.25;5.45;;;10.20;99.90;;;;;;5060184;28;20060;-84
2023/10/31 03:29:20;;;;;;;23.35;6.65;;;10.20;99.90;;;;;;5076818;28;20056;-84
2023/10/31 03:39:18;;;;;;;17.48;6.28;;;10.20;99.90;;;;;;5064417;28;20150;-86
2023/10/31 03:41:44;;;;;;;11.45;5.78;;;10.20;99.90;;;;;;5031159;28;20430;-85
2023/10/31 03:48:25;;;;;;;12.55;6.18;;;10.20;99.90;;;;;;5062991;28;20071;-86
2023/10/31 03:50:52;;;;;;;19.65;7.25;;;10.20;99.90;;;;;;5032305;28;20407;-85
2023/10/31 03:53:17;;;;;;;14.20;5.88;;;10.20;99.90;;;;;;5086750;28;20059;-85
2023/10/31 03:55:43;;;;;;;20.20;7.60;;;10.20;99.90;;;;;;5063801;28;20040;-85
2023/10/31 03:58:09;;;;;;;16.92;5.80;;;10.20;99.90;;;;;;5085536;28;20172;-86
2023/10/31 04:00:35;;;;;;;14.43;6.53;;;10.20;99.90;;;;;;5080560;28;20056;-85
2023/10/31 04:03:01;;;;;;;17.17;5.85;;;10.20;99.90;;;;;;5083042;28;20430;-85
2023/10/31 04:05:27;;;;;;;10.93;4.65;;;10.20;99.90;;;;;;5080427;28;20036;-85
2023/10/31 04:07:53;;;;;;;8.85;4.70;;;10.20;99.90;;;;;;5069407;28;20044;-86
2023/10/31 04:10:37;;;;;;;15.30;4.28;;;10.20;99.90;;;;;;5072759;28;20043;-85
2023/10/31 04:13:06;;;;;;;15.55;5.78;;;10.30;99.90;;;;;;5064167;28;20040;-86
2023/10/31 04:15:34;;;;;;;12.60;4.78;;;10.30;99.90;;;;;;5067978;28;20518;-85
2023/10/31 04:18:00;;;;;;;18.75;6.47;;;10.30;99.90;;;;;;5068739;28;20040;-85
2023/10/31 04:20:26;;;;;;;14.63;6.05;;;10.30;99.90;;;;;;5064571;28;20901;-85
2023/10/31 04:22:52;;;;;;;14.40;5.80;;;10.30;99.90;;;;;;5068007;28;20047;-85
2023/10/31 04:25:17;;;;;;;15.80;6.43;;;10.30;99.90;;;;;;5065399;28;20098;-86
2023/10/31 04:27:46;;;;;;;9.90;4.95;;;10.30;99.90;;;;;;5065982;28;20093;-86
2023/10/31 04:30:12;;;;;;;13.30;5.07;;;10.30;99.90;;;;;;5085349;28;20055;-86
2023/10/31 04:32:38;;;;;;;13.50;5.20;;;10.30;99.90;;;;;;5068281;28;20138;-86
2023/10/31 04:35:09;;;;;;;13.13;4.28;;;10.30;99.90;;;;;;5083397;28;20059;-85
2023/10/31 04:37:35;;;;;;;6.93;3.40;;;10.40;99.90;;;;;;5066614;28;20584;-86
2023/10/31 04:40:10;;;;;;;10.82;3.60;;;10.40;99.90;;;;;;5069057;28;20040;-85
2023/10/31 04:42:38;;;;;;;5.30;2.70;;;10.40;99.90;;;;;;5099745;27;20554;-84
2023/10/31 04:45:08;;;;;;;4.93;2.42;;;10.40;99.90;;;;;;5067113;28;20410;-86
2023/10/31 04:47:37;;;;;;;8.43;3.22;;;10.30;99.90;;;;;;5080394;28;20048;-84
2023/10/31 04:50:03;;;;;;;8.57;2.58;;;10.30;99.90;;;;;;5069351;28;20036;-85
2023/10/31 04:52:28;;;;;;;8.07;2.45;;;10.30;99.90;;;;;;5067958;28;20060;-85
2023/10/31 04:54:54;;;;;;;9.43;1.95;;;10.30;99.90;;;;;;5066575;28;20121;-86
2023/10/31 04:57:20;;;;;;;10.05;2.40;;;10.30;99.90;;;;;;5085183;28;20108;-86
2023/10/31 04:59:46;;;;;;;9.18;2.10;;;10.40;99.90;;;;;;5067144;28;20048;-86
2023/10/31 05:02:12;;;;;;;7.50;2.50;;;10.30;99.90;;;;;;5071686;28;20049;-85
2023/10/31 05:04:50;;;;;;;11.68;2.47;;;10.30;99.90;;;;;;5065376;28;20079;-85
2023/10/31 05:07:19;;;;;;;6.70;1.98;;;10.30;99.90;;;;;;5062547;28;20570;-87
2023/10/31 05:09:45;;;;;;;7.00;2.00;;;10.30;99.90;;;;;;5082537;28;20044;-86
2023/10/31 05:12:12;;;;;;;6.68;1.88;;;10.20;99.90;;;;;;5077681;28;20043;-86
2023/10/31 05:14:38;;;;;;;6.75;1.90;;;10.30;99.90;;;;;;5071342;28;20048;-85
2023/10/31 05:17:04;;;;;;;5.15;1.70;;;10.20;99.90;;;;;;5070877;28;20062;-85
2023/10/31 05:19:30;;;;;;;8.98;2.10;;;10.20;99.90;;;;;;5065072;28;20195;-85
2023/10/31 05:21:56;;;;;;;5.47;1.70;;;10.30;99.90;;;;;;5067430;28;20103;-84
2023/10/31 05:24:23;;;;;;;6.30;1.60;;;10.30;99.90;;;;;;5050437;28;20049;-82
2023/10/31 05:26:48;;;;;;;7.75;2.20;;;10.20;99.90;;;;;;5079917;28;20486;-85
2023/10/31 05:29:14;;;;;;;9.27;2.22;;;10.20;99.90;;;;;;5058499;28;20131;-83
2023/10/31 05:31:41;;;;;;;7.95;1.70;;;10.20;99.90;;;;;;5083956;28;20372;-84
2023/10/31 05:34:07;;;;;;;5.25;1.80;;;10.20;99.90;;;;;;5066159;28;20517;-83
2023/10/31 05:36:48;;;;;;;7.05;1.85;;;10.20;99.90;;;;;;5066105;28;20044;-85
2023/10/31 05:39:15;;;;;;;9.25;1.90;;;10.20;99.90;;;;;;5066171;28;20102;-84
2023/10/31 05:41:41;;;;;;;7.82;1.60;;;10.20;99.90;;;;;;5080543;28;20051;-84
2023/10/31 05:44:07;;;;;;;5.95;1.70;;;10.20;99.90;;;;;;5083796;28;20039;-83
2023/10/31 05:46:50;;;;;;;4.43;1.65;;;10.20;99.90;;;;;;5081546;28;20075;-84
2023/10/31 05:49:19;;;;;;;6.68;1.50;;;10.20;99.90;;;;;;5065959;28;20501;-84
2023/10/31 05:51:49;;;;;;;6.55;2.00;;;10.10;99.90;;;;;;5085162;28;20032;-84
2023/10/31 05:57:18;;;;;;;7.78;1.67;;;10.10;99.90;;;;;;5051371;28;20051;-84
2023/10/31 05:59:45;;;;;;;7.60;2.22;;;10.10;99.90;;;;;;5067242;28;20559;-84
2023/10/31 06:02:17;;;;;;;7.47;2.38;;;10.10;99.90;;;;;;5065392;28;20467;-85
2023/10/31 06:04:45;;;;;;;5.50;1.65;;;10.10;99.90;;;;;;5071833;28;20036;-84
2023/10/31 06:07:30;;;;;;;5.85;1.70;;;10.20;99.90;;;;;;5066069;28;20122;-84
2023/10/31 06:10:08;;;;;;;7.47;2.50;;;10.10;99.90;;;;;;5086862;28;20043;-84
2023/10/31 06:12:37;;;;;;;4.10;1.50;;;10.10;99.90;;;;;;5068874;28;20098;-84
2023/10/31 06:15:14;;;;;;;6.18;2.13;;;10.20;99.90;;;;;;5069035;28;20800;-84
2023/10/31 06:17:51;;;;;;;4.82;2.00;;;10.10;99.90;;;;;;5067154;28;20040;-87
2023/10/31 06:20:26;;;;;;;9.90;2.50;;;10.20;99.90;;;;;;5067362;28;20393;-85
2023/10/31 06:22:52;;;;;;;4.88;1.77;;;10.10;99.90;;;;;;5081782;28;20040;-85
2023/10/31 06:25:20;;;;;;;7.28;2.58;;;10.10;99.90;;;;;;5067845;28;20059;-85
2023/10/31 06:31:49;;;;;;;5.38;3.00;;;10.00;99.90;;;;;;5082966;28;20120;-83
2023/10/31 06:34:26;;;;;;;9.95;3.70;;;10.10;99.90;;;;;;5026718;28;20508;-83
2023/10/31 06:37:00;;;;;;;7.57;4.15;;;10.10;99.90;;;;;;5067536;28;20323;-84
2023/10/31 06:39:59;;;;;;;5.55;3.80;;;10.10;99.90;;;;;;5057983;28;20076;-84
2023/10/31 06:43:05;;;;;;;8.38;4.40;;;10.10;99.90;;;;;;5082508;28;20048;-83
2023/10/31 06:49:10;;;;;;;8.57;5.35;;;10.20;99.90;;;;;;5062550;28;20047;-80
2023/10/31 06:51:35;;;;;;;10.73;7.05;;;10.20;99.90;;;;;;5069853;28;20089;-82
2023/10/31 06:54:01;;;;;;;10.45;6.65;;;10.20;99.90;;;;;;5086089;28;20517;-82
2023/10/31 06:56:28;;;;;;;8.90;7.05;;;10.20;99.90;;;;;;5069191;28;20040;-82
2023/10/31 06:58:54;;;;;;;19.85;8.68;;;10.20;99.90;;;;;;5080815;28;20048;-83
2023/10/31 07:01:20;;;;;;;10.48;6.72;;;10.20;99.90;;;;;;5069355;28;20479;-83
2023/10/31 07:03:46;;;;;;;11.95;7.50;;;10.30;99.90;;;;;;5082030;28;20055;-82
2023/10/31 07:06:12;;;;;;;10.68;6.95;;;10.30;99.90;;;;;;5083235;28;20048;-81
2023/10/31 07:08:38;;;;;;;15.48;8.30;;;10.30;99.90;;;;;;5067632;28;20328;-81
2023/10/31 07:11:04;;;;;;;13.43;8.90;;;10.30;99.90;;;;;;5065734;28;20420;-81
2023/10/31 07:13:34;;;;;;;11.32;8.20;;;10.30;99.90;;;;;;5067484;28;20123;-81
2023/10/31 07:16:00;;;;;;;13.47;8.07;;;10.30;99.90;;;;;;5082159;28;20150;-81
2023/10/31 07:18:28;;;;;;;15.05;9.10;;;10.40;99.90;;;;;;5079963;28;20526;-81
2023/10/31 07:20:54;;;;;;;17.67;9.95;;;10.40;99.90;;;;;;5068374;28;20089;-81
2023/10/31 07:23:20;;;;;;;9.82;8.32;;;10.40;99.90;;;;;;5066097;28;20040;-81
2023/10/31 07:25:46;;;;;;;17.38;9.77;;;10.50;99.90;;;;;;5080354;28;20493;-81
2023/10/31 07:28:12;;;;;;;13.05;8.48;;;10.40;99.90;;;;;;5080677;28;20036;-80
2023/10/31 07:30:38;;;;;;;11.88;8.10;;;10.40;99.90;;;;;;5066208;28;20044;-81
2023/10/31 07:33:09;;;;;;;11.60;7.05;;;10.50;99.90;;;;;;5070563;28;20466;-80
2023/10/31 07:35:35;;;;;;;17.92;8.30;;;10.50;99.90;;;;;;5069428;28;20033;-81
2023/10/31 07:38:01;;;;;;;13.63;8.55;;;10.50;99.90;;;;;;5068423;28;20050;-80
2023/10/31 07:40:27;;;;;;;10.40;6.28;;;10.50;99.90;;;;;;5084305;28;20055;-81
2023/10/31 07:42:53;;;;;;;12.43;7.13;;;10.60;99.90;;;;;;5071481;28;20043;-80
2023/10/31 07:45:19;;;;;;;15.23;7.22;;;10.60;99.90;;;;;;5084957;28;20558;-81
2023/10/31 07:47:44;;;;;;;9.50;5.70;;;10.60;99.90;;;;;;5082496;28;20051;-81
2023/10/31 07:50:10;;;;;;;8.93;5.63;;;10.60;99.90;;;;;;5082887;28;20067;-79
2023/10/31 07:52:36;;;;;;;11.48;6.05;;;10.60;99.90;;;;;;5085406;28;20079;-80
2023/10/31 07:55:02;;;;;;;6.63;3.85;;;10.70;99.90;;;;;;5084617;28;20458;-80
2023/10/31 07:57:28;;;;;;;9.20;3.65;;;10.80;99.90;;;;;;5079625;28;20047;-80
2023/10/31 07:59:54;;;;;;;13.82;4.82;;;10.80;99.90;;;;;;5071189;28;20490;-80
2023/10/31 08:02:19;;;;;;;5.80;2.80;;;10.80;99.90;;;;;;5081301;28;20119;-80
2023/10/31 08:04:45;;;;;;;11.05;3.63;;;10.80;99.90;;;;;;5066301;28;20032;-80
2023/10/31 08:07:11;;;;;;;12.88;3.78;;;10.90;99.90;;;;;;5064442;28;20116;-79
2023/10/31 08:09:36;;;;;;;8.95;2.60;;;10.90;99.90;;;;;;5085034;28;20037;-79
2023/10/31 08:12:02;;;;;;;10.63;2.60;;;10.90;99.90;;;;;;5064577;28;20080;-79
2023/10/31 08:14:28;;;;;;;7.45;2.30;;;10.90;99.90;;;;;;5082557;28;20044;-79
2023/10/31 08:16:54;;;;;;;10.70;2.47;;;10.90;99.90;;;;;;5066953;28;20127;-79
2023/10/31 08:19:19;;;;;;;5.20;2.05;;;11.00;99.90;;;;;;5065574;28;20094;-80
2023/10/31 08:21:45;;;;;;;9.05;2.28;;;11.00;99.90;;;;;;5065232;28;20051;-79
2023/10/31 08:24:13;;;;;;;6.85;1.85;;;11.00;99.90;;;;;;5078202;28;20036;-79
2023/10/31 08:26:39;;;;;;;5.15;1.42;;;11.00;99.90;;;;;;5068822;28;20563;-79
2023/10/31 08:29:04;;;;;;;7.13;1.75;;;11.00;99.90;;;;;;5066402;28;20048;-79
2023/10/31 08:31:30;;;;;;;9.38;1.90;;;11.00;99.90;;;;;;5068572;28;20530;-79
2023/10/31 08:33:56;;;;;;;6.88;1.48;;;11.10;99.90;;;;;;5080455;28;20490;-79
2023/10/31 08:36:22;;;;;;;6.28;1.58;;;11.10;99.90;;;;;;5068995;28;20098;-79
2023/10/31 08:38:50;;;;;;;4.30;1.17;;;11.00;99.90;;;;;;5083525;28;20114;-79
2023/10/31 08:41:19;;;;;;;6.72;1.60;;;11.10;99.90;;;;;;5081661;28;20049;-79
2023/10/31 08:43:46;;;;;;;10.98;1.80;;;11.10;99.90;;;;;;5065152;28;20047;-79
2023/10/31 08:46:13;;;;;;;6.93;1.75;;;11.10;99.90;;;;;;5083671;28;20043;-79
2023/10/31 08:48:38;;;;;;;6.55;1.45;;;11.10;99.90;;;;;;5078540;28;20538;-79
2023/10/31 08:51:04;;;;;;;6.03;1.10;;;11.10;99.90;;;;;;5068965;28;20165;-79
2023/10/31 08:53:30;;;;;;;4.80;1.30;;;11.20;99.90;;;;;;5078049;28;20051;-79
2023/10/31 08:55:56;;;;;;;8.65;2.15;;;11.20;99.90;;;;;;5065619;28;20070;-79
2023/10/31 08:58:22;;;;;;;4.72;1.52;;;11.20;99.90;;;;;;5066148;28;20063;-79
2023/10/31 09:00:48;;;;;;;7.43;1.77;;;11.20;99.90;;;;;;5085643;28;20254;-79
2023/10/31 09:03:13;;;;;;;8.55;1.48;;;11.20;99.90;;;;;;5061633;28;20422;-78
2023/10/31 09:05:40;;;;;;;4.28;1.00;;;11.30;99.90;;;;;;5065167;28;20036;-78
2023/10/31 09:08:06;;;;;;;5.28;1.08;;;11.30;99.90;;;;;;5084046;28;20044;-78
2023/10/31 09:10:33;;;;;;;7.82;1.15;;;11.40;99.90;;;;;;5083765;28;20410;-78
2023/10/31 09:12:59;;;;;;;6.22;1.20;;;11.50;99.90;;;;;;5078960;28;20040;-78
2023/10/31 09:15:25;;;;;;;4.55;1.00;;;11.60;99.90;;;;;;5082934;28;20078;-78
2023/10/31 09:17:51;;;;;;;4.93;1.23;;;11.70;99.90;;;;;;5075873;28;20047;-78
2023/10/31 09:20:17;;;;;;;7.65;1.30;;;11.70;99.90;;;;;;5085362;28;20079;-78
2023/10/31 09:22:42;;;;;;;7.03;1.13;;;11.80;99.90;;;;;;5062206;28;20052;-78
2023/10/31 09:25:10;;;;;;;4.75;1.23;;;11.80;99.90;;;;;;5063421;28;20470;-78
2023/10/31 09:27:37;;;;;;;5.72;1.20;;;11.80;99.90;;;;;;5064376;28;20036;-79
2023/10/31 09:30:04;;;;;;;6.22;0.63;;;11.80;99.90;;;;;;5062750;28;20051;-78
2023/10/31 09:32:31;;;;;;;6.68;1.10;;;11.80;99.90;;;;;;5067918;28;20048;-80
2023/10/31 09:34:56;;;;;;;6.95;0.90;;;11.80;99.90;;;;;;5083211;28;20134;-80
2023/10/31 09:37:22;;;;;;;6.60;0.80;;;11.80;99.90;;;;;;5065527;28;20444;-79
2023/10/31 09:39:48;;;;;;;4.07;0.68;;;11.70;99.90;;;;;;5083138;28;20043;-79
2023/10/31 09:42:14;;;;;;;9.00;0.80;;;11.70;99.90;;;;;;5083923;28;20391;-79
2023/10/31 09:44:40;;;;;;;2.25;0.40;;;11.80;99.90;;;;;;5079195;28;20209;-79
2023/10/31 09:47:07;;;;;;;2.97;0.40;;;11.70;99.90;;;;;;5079712;28;20040;-80
2023/10/31 09:49:34;;;;;;;4.88;0.50;;;11.70;99.90;;;;;;5066209;28;20501;-80
2023/10/31 09:52:01;;;;;;;2.47;0.40;;;11.60;99.90;;;;;;5066385;28;20048;-80
2023/10/31 09:54:26;;;;;;;7.75;0.63;;;11.60;99.90;;;;;;5079667;28;20130;-80
2023/10/31 09:56:52;;;;;;;2.30;0.32;;;11.60;99.90;;;;;;5065348;28;20047;-80
2023/10/31 09:59:18;;;;;;;3.85;0.45;;;11.60;99.90;;;;;;5065612;28;20064;-80
2023/10/31 10:01:45;;;;;;;2.55;0.30;;;11.50;99.90;;;;;;5080404;28;20040;-80
2023/10/31 10:04:11;;;;;;;3.42;0.40;;;11.50;99.90;;;;;;5066889;28;20032;-80
2023/10/31 10:06:50;;;;;;;4.32;0.45;;;11.50;99.90;;;;;;5067879;28;20105;-80
2023/10/31 10:09:16;;;;;;;4.40;0.68;;;11.50;99.90;;;;;;5080623;28;20044;-80
2023/10/31 10:11:42;;;;;;;4.90;0.82;;;11.50;99.90;;;;;;5080267;28;20108;-80
2023/10/31 10:14:10;;;;;;;7.50;1.45;;;11.50;99.90;;;;;;5079014;28;20515;-80
2023/10/31 10:16:36;;;;;;;10.48;1.38;;;11.50;99.90;;;;;;5080249;28;20055;-79
2023/10/31 10:19:22;;;;;;;6.53;1.50;;;11.40;99.90;;;;;;5067683;28;20040;-79
2023/10/31 10:21:58;;;;;;;8.68;1.75;;;11.40;99.90;;;;;;5076136;28;20146;-79
2023/10/31 10:24:24;;;;;;;5.47;1.38;;;11.40;99.90;;;;;;5076087;28;20125;-78
2023/10/31 10:26:51;;;;;;;8.23;1.60;;;11.50;99.90;;;;;;5067453;28;20040;-77
2023/10/31 10:29:17;;;;;;;6.20;1.20;;;11.40;99.90;;;;;;5080320;28;20032;-77
2023/10/31 10:31:44;;;;;;;6.25;1.42;;;11.40;99.90;;;;;;5068318;28;20085;-77
2023/10/31 10:34:14;;;;;;;4.32;0.80;;;11.40;99.90;;;;;;5064789;28;20033;-78
2023/10/31 10:36:40;;;;;;;3.55;0.57;;;11.40;99.90;;;;;;5065800;28;20051;-77
2023/10/31 10:39:07;;;;;;;5.72;0.80;;;11.30;99.90;;;;;;5079731;28;20036;-77
2023/10/31 10:41:37;;;;;;;12.00;1.17;;;11.30;99.90;;;;;;5065902;28;20052;-77
2023/10/31 10:44:07;;;;;;;5.47;0.57;;;11.40;99.90;;;;;;5080629;28;20052;-77
2023/10/31 10:46:35;;;;;;;6.50;0.93;;;11.40;99.90;;;;;;5080183;28;20555;-78
2023/10/31 10:49:06;;;;;;;5.60;1.30;;;11.50;99.90;;;;;;5100198;28;20562;-78
2023/10/31 10:51:35;;;;;;;3.75;0.65;;;11.50;99.90;;;;;;5083958;28;20207;-78
2023/10/31 10:54:11;;;;;;;4.68;0.70;;;11.60;99.90;;;;;;5101376;27;20072;-77
2023/10/31 10:56:46;;;;;;;6.03;1.00;;;11.60;99.90;;;;;;5086433;28;20528;-78
2023/10/31 10:59:19;;;;;;;6.60;1.05;;;11.70;99.90;;;;;;5072615;28;20127;-77
2023/10/31 11:01:47;;;;;;;4.82;0.77;;;11.70;99.90;;;;;;5082122;28;20048;-77
2023/10/31 11:04:13;;;;;;;5.97;1.30;;;11.80;99.90;;;;;;5067476;28;20040;-78
2023/10/31 11:06:40;;;;;;;9.20;0.88;;;11.80;99.90;;;;;;5080348;28;20343;-77
2023/10/31 11:09:06;;;;;;;4.88;0.75;;;11.80;99.90;;;;;;5068752;28;20071;-77
2023/10/31 11:11:32;;;;;;;5.55;0.70;;;11.80;99.90;;;;;;5085659;28;20439;-78
2023/10/31 11:14:01;;;;;;;6.70;0.95;;;11.80;99.90;;;;;;5067915;28;20056;-78
2023/10/31 11:16:36;;;;;;;7.70;1.40;;;11.80;99.90;;;;;;5081717;28;20452;-78
2023/10/31 11:19:02;;;;;;;7.65;0.90;;;11.80;99.90;;;;;;5082212;28;20075;-79
2023/10/31 11:21:29;;;;;;;2.85;0.73;;;11.80;99.90;;;;;;5067650;28;20047;-80
2023/10/31 11:23:59;;;;;;;5.78;0.80;;;11.80;99.90;;;;;;5065426;28;20072;-78
2023/10/31 11:26:30;;;;;;;5.45;0.90;;;11.70;99.90;;;;;;5096345;27;20043;-79
2023/10/31 11:29:06;;;;;;;6.78;0.90;;;11.70;99.90;;;;;;5082272;28;20098;-79
2023/10/31 11:31:37;;;;;;;6.30;1.02;;;11.60;99.90;;;;;;5077853;28;20384;-79
2023/10/31 11:34:04;;;;;;;7.53;1.45;;;11.60;99.90;;;;;;5083788;28;20150;-79
2023/10/31 11:36:34;;;;;;;16.08;1.73;;;11.60;99.90;;;;;;5084067;28;20040;-79
2023/10/31 11:39:13;;;;;;;;;;;11.60;99.90;;;;;;5067927;28;20127;-79
2023/10/31 11:41:39;;;;;;;8.57;0.93;;;11.60;99.90;;;;;;5082654;28;20030;-79
2023/10/31 11:44:05;;;;;;;5.05;0.90;;;11.60;99.90;;;;;;5082099;28;20133;-79
2023/10/31 11:46:31;;;;;;;4.60;0.90;;;11.60;99.90;;;;;;5068488;28;20064;-79
2023/10/31 11:48:57;;;;;;;18.17;1.60;;;11.60;99.90;;;;;;5065813;28;20632;-79
2023/10/31 11:51:24;;;;;;;8.82;1.25;;;11.50;99.90;;;;;;5074826;28;20051;-79
2023/10/31 11:53:50;;;;;;;11.18;1.35;;;11.60;99.90;;;;;;5066249;28;20043;-79
2023/10/31 11:56:16;;;;;;;6.88;1.25;;;11.50;99.90;;;;;;5069234;28;20040;-79
2023/10/31 11:58:42;;;;;;;4.95;0.93;;;11.60;99.90;;;;;;5066228;28;20051;-79
2023/10/31 12:01:09;;;;;;;6.60;1.00;;;11.60;99.90;;;;;;5087980;28;20118;-79
2023/10/31 12:03:40;;;;;;;8.02;1.20;;;11.60;99.90;;;;;;5064495;28;20044;-79
2023/10/31 12:06:10;;;;;;;6.43;0.85;;;11.60;99.90;;;;;;5071349;28;20073;-79
2023/10/31 12:08:38;;;;;;;2.75;0.70;;;11.60;99.90;;;;;;5085480;28;21387;-80
2023/10/31 12:11:12;;;;;;;9.65;1.38;;;11.60;99.90;;;;;;5065568;28;20051;-80
2023/10/31 12:13:40;;;;;;;9.13;1.20;;;11.60;99.90;;;;;;5080783;28;20406;-80
2023/10/31 12:16:08;;;;;;;6.28;0.90;;;11.50;99.90;;;;;;5066946;28;20337;-80
2023/10/31 12:18:35;;;;;;;12.15;1.85;;;11.60;99.90;;;;;;5082873;28;20040;-80
2023/10/31 12:21:08;;;;;;;3.10;0.60;;;11.50;99.90;;;;;;5079106;28;20036;-80
2023/10/31 12:23:37;;;;;;;3.67;0.77;;;11.50;99.90;;;;;;5098079;28;20688;-79
2023/10/31 12:26:03;;;;;;;2.88;0.60;;;11.50;99.90;;;;;;5062531;28;20051;-80
2023/10/31 12:28:29;;;;;;;4.65;1.02;;;11.50;99.90;;;;;;5069208;28;20136;-79
2023/10/31 12:30:55;;;;;;;6.35;1.20;;;11.40;99.90;;;;;;5077267;28;20215;-79
2023/10/31 12:33:24;;;;;;;10.27;1.20;;;11.50;99.90;;;;;;5085633;28;20040;-80
2023/10/31 12:35:56;;;;;;;5.18;1.02;;;11.50;99.90;;;;;;5064125;28;20059;-80
2023/10/31 12:38:22;;;;;;;10.45;1.30;;;11.50;99.90;;;;;;5067138;28;20532;-80
2023/10/31 12:40:48;;;;;;;5.75;0.98;;;11.50;99.90;;;;;;5081439;28;20085;-80
2023/10/31 12:43:16;;;;;;;4.50;0.77;;;11.50;99.90;;;;;;5066384;28;20047;-80
2023/10/31 12:45:42;;;;;;;4.28;0.82;;;11.40;99.90;;;;;;5080257;28;20048;-80
2023/10/31 12:48:09;;;;;;;5.97;1.10;;;11.40;99.90;;;;;;5073627;28;20104;-80
2023/10/31 12:50:43;;;;;;;5.10;1.13;;;11.40;99.90;;;;;;5100501;27;20048;-80
2023/10/31 12:53:11;;;;;;;11.00;1.00;;;11.40;99.90;;;;;;5082405;28;20040;-79
2023/10/31 12:55:42;;;;;;;5.75;0.95;;;11.40;99.90;;;;;;5063347;28;20479;-79
2023/10/31 12:58:14;;;;;;;3.15;0.50;;;11.40;99.90;;;;;;5070007;28;20086;-79
2023/10/31 13:00:42;;;;;;;5.40;0.73;;;11.40;99.90;;;;;;5080097;28;20052;-79
2023/10/31 13:03:09;;;;;;;6.97;1.33;;;11.40;99.90;;;;;;5065377;28;20036;-80
2023/10/31 13:05:36;;;;;;;12.07;1.70;;;11.40;99.90;;;;;;5066227;28;20401;-78
2023/10/31 13:08:04;;;;;;;8.07;1.50;;;11.50;99.90;;;;;;5065188;28;20406;-79